Aviation Digital Data Service (ADDS)

Output produced by METARs form (0107 UTC 24 May 2022)
found at http://www.aviationweather.gov/metar/data/
 
FBMN 240000Z 24003KT CAVOK 06/06 Q1020
FBSK 240000Z 30005KT CAVOK 09/// Q1020 NOSIG
TAF FBSK 232100Z 2400/2506 24008KT CAVOK